createdAt,value
2017-10-26T00:00:48.746Z,0
2017-10-26T00:01:48.406Z,0
2017-10-26T00:02:48.717Z,0
2017-10-26T00:03:48.364Z,0
2017-10-26T00:04:48.355Z,0
2017-10-26T00:05:48.687Z,0
2017-10-26T00:06:48.004Z,0
2017-10-26T00:07:48.986Z,0
2017-10-26T00:08:48.637Z,0
2017-10-26T00:09:48.649Z,0
2017-10-26T00:10:48.943Z,0
2017-10-26T00:11:48.580Z,0
2017-10-26T00:12:48.581Z,0
2017-10-26T00:13:47.904Z,0
2017-10-26T00:14:48.539Z,0
2017-10-26T00:15:48.539Z,0
2017-10-26T00:16:48.186Z,0
2017-10-26T00:17:48.173Z,0
2017-10-26T00:18:48.164Z,0
2017-10-26T00:19:48.145Z,0
2017-10-26T00:20:48.801Z,0
2017-10-26T00:21:47.777Z,0
2017-10-26T00:22:48.426Z,0
2017-10-26T00:23:48.432Z,0
2017-10-26T00:24:48.421Z,0
2017-10-26T00:25:48.095Z,0
2017-10-26T00:26:48.400Z,0
2017-10-26T00:27:48.364Z,0
2017-10-26T00:28:48.360Z,0
2017-10-26T00:29:47.672Z,0
2017-10-26T00:30:47.991Z,0
2017-10-26T00:31:48.307Z,0
2017-10-26T00:32:48.295Z,0
2017-10-26T00:33:48.278Z,0
2017-10-26T00:34:47.931Z,0
2017-10-26T00:35:47.585Z,0
2017-10-26T00:36:47.907Z,0
2017-10-26T00:37:48.243Z,0
2017-10-26T00:38:47.876Z,0
2017-10-26T00:39:47.859Z,0
2017-10-26T00:40:48.519Z,0
2017-10-26T00:41:48.172Z,0
2017-10-26T00:42:48.154Z,0
2017-10-26T00:43:47.806Z,0
2017-10-26T00:44:48.130Z,0
2017-10-26T00:45:47.116Z,0
2017-10-26T00:46:47.090Z,0
2017-10-26T00:47:48.081Z,0
2017-10-26T00:48:48.076Z,0
2017-10-26T00:49:48.070Z,0
2017-10-26T00:50:47.720Z,0
2017-10-26T00:51:48.023Z,0
2017-10-26T00:52:48.027Z,0
2017-10-26T00:53:47.665Z,0
2017-10-26T00:54:47.650Z,0
2017-10-26T00:55:47.637Z,0
2017-10-26T00:56:47.965Z,0
2017-10-26T00:57:47.270Z,0
2017-10-26T00:58:47.587Z,0
2017-10-26T00:59:47.248Z,0
2017-10-26T01:00:47.568Z,0
2017-10-26T01:01:47.241Z,0
2017-10-26T01:02:47.877Z,0
2017-10-26T01:03:47.532Z,0
2017-10-26T01:04:47.512Z,0
2017-10-26T01:05:47.163Z,0
2017-10-26T01:06:47.816Z,0
2017-10-26T01:07:47.806Z,0
2017-10-26T01:08:47.453Z,0
2017-10-26T01:09:47.108Z,0
2017-10-26T01:10:47.757Z,0
2017-10-26T01:11:47.738Z,0
2017-10-26T01:12:47.389Z,0
2017-10-26T01:13:47.721Z,0
2017-10-26T01:14:47.697Z,0
2017-10-26T01:15:47.687Z,0
2017-10-26T01:16:47.682Z,0
2017-10-26T01:17:47.663Z,0
2017-10-26T01:18:47.639Z,0
2017-10-26T01:19:47.639Z,0
2017-10-26T01:20:47.645Z,0
2017-10-26T01:21:46.949Z,0
2017-10-26T01:22:47.928Z,0
2017-10-26T01:23:47.590Z,0
2017-10-26T01:24:46.893Z,0
2017-10-26T01:25:47.743Z,0
2017-10-26T01:26:47.865Z,0
2017-10-26T01:27:47.524Z,0
2017-10-26T01:28:47.843Z,0
2017-10-26T01:29:47.501Z,0
2017-10-26T01:30:47.493Z,0
2017-10-26T01:31:47.463Z,0
2017-10-26T01:32:47.143Z,0
2017-10-26T01:33:47.098Z,0
2017-10-26T01:34:47.794Z,0
2017-10-26T01:35:47.069Z,0
2017-10-26T01:36:46.715Z,0
2017-10-26T01:37:47.055Z,0
2017-10-26T01:38:47.419Z,0
2017-10-26T01:39:47.012Z,0
2017-10-26T01:40:47.004Z,0
2017-10-26T01:41:47.698Z,0
2017-10-26T01:42:46.986Z,0
2017-10-26T01:43:46.975Z,0
2017-10-26T01:44:47.600Z,0
2017-10-26T01:45:46.932Z,0
2017-10-26T01:46:47.255Z,0
2017-10-26T01:47:47.581Z,0
2017-10-26T01:48:47.232Z,0
2017-10-26T01:49:46.538Z,0
2017-10-26T01:50:47.197Z,0
2017-10-26T01:51:47.178Z,0
2017-10-26T01:52:47.161Z,0
2017-10-26T01:53:47.146Z,0
2017-10-26T01:54:46.473Z,0
2017-10-26T01:55:47.458Z,0
2017-10-26T01:56:46.774Z,0
2017-10-26T01:57:47.097Z,0
2017-10-26T01:58:47.417Z,0
2017-10-26T01:59:46.070Z,0
2017-10-26T02:00:47.066Z,0
2017-10-26T02:01:47.049Z,0
2017-10-26T02:02:47.354Z,0
2017-10-26T02:03:47.342Z,0
2017-10-26T02:04:46.665Z,0
2017-10-26T02:05:46.643Z,0
2017-10-26T02:06:46.969Z,0
2017-10-26T02:07:46.974Z,0
2017-10-26T02:08:46.607Z,0
2017-10-26T02:09:46.600Z,0
2017-10-26T02:10:46.920Z,0
2017-10-26T02:11:46.557Z,0
2017-10-26T02:12:46.895Z,0
2017-10-26T02:13:47.202Z,0
2017-10-26T02:14:47.188Z,0
2017-10-26T02:15:46.849Z,0
2017-10-26T02:16:46.832Z,0
2017-10-26T02:17:46.146Z,0
2017-10-26T02:18:47.161Z,0
2017-10-26T02:19:46.799Z,0
2017-10-26T02:20:46.106Z,0
2017-10-26T02:21:46.758Z,0
2017-10-26T02:22:46.740Z,0
2017-10-26T02:23:46.058Z,0
2017-10-26T02:24:46.067Z,0
2017-10-26T02:25:46.708Z,0
2017-10-26T02:26:46.016Z,0
2017-10-26T02:27:46.681Z,0
2017-10-26T02:28:46.667Z,0
2017-10-26T02:29:46.665Z,0
2017-10-26T02:30:46.320Z,0
2017-10-26T02:31:46.296Z,0
2017-10-26T02:32:46.286Z,0
2017-10-26T02:33:46.615Z,0
2017-10-26T02:34:46.246Z,0
2017-10-26T02:35:46.244Z,0
2017-10-26T02:36:45.560Z,0
2017-10-26T02:37:46.203Z,0
2017-10-26T02:38:45.527Z,0
2017-10-26T02:39:46.183Z,0
2017-10-26T02:40:46.531Z,0
2017-10-26T02:41:46.494Z,0
2017-10-26T02:42:46.481Z,0
2017-10-26T02:43:46.147Z,0
2017-10-26T02:44:46.111Z,0
2017-10-26T02:45:46.102Z,0
2017-10-26T02:46:46.751Z,0
2017-10-26T02:47:45.737Z,0
2017-10-26T02:48:46.399Z,0
2017-10-26T02:49:46.711Z,0
2017-10-26T02:50:46.427Z,0
2017-10-26T02:51:45.672Z,0
2017-10-26T02:52:45.663Z,0
2017-10-26T02:53:45.988Z,0
2017-10-26T02:54:45.646Z,0
2017-10-26T02:55:45.623Z,0
2017-10-26T02:56:46.300Z,0
2017-10-26T02:57:46.272Z,0
2017-10-26T02:58:46.259Z,0
2017-10-26T02:59:45.909Z,0
2017-10-26T03:00:46.606Z,0
2017-10-26T03:01:46.212Z,0
2017-10-26T03:02:46.200Z,0
2017-10-26T03:03:45.839Z,0
2017-10-26T03:04:46.188Z,0
2017-10-26T03:05:45.812Z,0
2017-10-26T03:06:45.474Z,0
2017-10-26T03:07:45.455Z,0
2017-10-26T03:08:45.449Z,0
2017-10-26T03:09:45.787Z,0
2017-10-26T03:10:46.424Z,0
2017-10-26T03:11:45.752Z,0
2017-10-26T03:12:45.401Z,0
2017-10-26T03:13:46.398Z,0
2017-10-26T03:14:45.716Z,0
2017-10-26T03:15:45.343Z,0
2017-10-26T03:16:45.686Z,0
2017-10-26T03:17:45.662Z,0
2017-10-26T03:18:45.646Z,0
2017-10-26T03:19:45.632Z,0
2017-10-26T03:20:45.956Z,0
2017-10-26T03:21:45.604Z,0
2017-10-26T03:22:45.584Z,0
2017-10-26T03:23:45.908Z,0
2017-10-26T03:24:45.901Z,0
2017-10-26T03:25:46.278Z,0
2017-10-26T03:26:45.531Z,0
2017-10-26T03:27:45.848Z,0
2017-10-26T03:28:45.499Z,0
2017-10-26T03:29:45.489Z,0
2017-10-26T03:30:45.489Z,0
2017-10-26T03:31:45.809Z,0
2017-10-26T03:32:45.456Z,0
2017-10-26T03:33:46.103Z,0
2017-10-26T03:34:46.087Z,0
2017-10-26T03:35:45.411Z,0
2017-10-26T03:36:45.405Z,0
2017-10-26T03:37:45.712Z,0
2017-10-26T03:38:45.705Z,0
2017-10-26T03:39:45.688Z,0
2017-10-26T03:40:45.343Z,0
2017-10-26T03:41:45.339Z,0
2017-10-26T03:42:45.643Z,0
2017-10-26T03:43:45.642Z,0
2017-10-26T03:44:44.955Z,0
2017-10-26T03:45:45.601Z,0
2017-10-26T03:46:45.606Z,0
2017-10-26T03:47:45.935Z,0
2017-10-26T03:48:45.235Z,0
2017-10-26T03:49:44.883Z,0
2017-10-26T03:50:45.563Z,0
2017-10-26T03:51:44.860Z,0
2017-10-26T03:52:45.187Z,0
2017-10-26T03:53:44.839Z,0
2017-10-26T03:54:44.824Z,0
2017-10-26T03:55:45.148Z,0
2017-10-26T03:56:45.797Z,0
2017-10-26T03:57:45.112Z,0
2017-10-26T03:58:45.427Z,0
2017-10-26T03:59:45.765Z,0
2017-10-26T04:00:45.733Z,0
2017-10-26T04:01:44.393Z,0
2017-10-26T04:02:45.372Z,0
2017-10-26T04:03:45.033Z,0
2017-10-26T04:04:45.359Z,0
2017-10-26T04:05:45.336Z,0
2017-10-26T04:06:45.344Z,0
2017-10-26T04:07:44.976Z,0
2017-10-26T04:08:45.290Z,0
2017-10-26T04:09:44.617Z,0
2017-10-26T04:10:44.933Z,0
2017-10-26T04:11:44.916Z,0
2017-10-26T04:12:44.582Z,0
2017-10-26T04:13:45.240Z,0
2017-10-26T04:14:45.213Z,0
2017-10-26T04:15:44.869Z,0
2017-10-26T04:16:44.848Z,0
2017-10-26T04:17:44.517Z,0
2017-10-26T04:18:44.816Z,0
2017-10-26T04:19:45.145Z,0
2017-10-26T04:20:45.472Z,0
2017-10-26T04:21:44.776Z,0
2017-10-26T04:22:44.765Z,0
2017-10-26T04:23:45.431Z,0
2017-10-26T04:24:45.088Z,0
2017-10-26T04:25:44.053Z,0
2017-10-26T04:26:45.053Z,0
2017-10-26T04:27:45.034Z,0
2017-10-26T04:28:45.014Z,0
2017-10-26T04:29:44.674Z,0
2017-10-26T04:30:44.654Z,0
2017-10-26T04:31:44.636Z,0
2017-10-26T04:32:44.629Z,0
2017-10-26T04:33:44.944Z,0
2017-10-26T04:34:45.271Z,0
2017-10-26T04:35:44.255Z,0
2017-10-26T04:36:44.587Z,0
2017-10-26T04:37:44.896Z,0
2017-10-26T04:38:44.541Z,0
2017-10-26T04:39:44.529Z,0
2017-10-26T04:40:44.519Z,0
2017-10-26T04:41:44.835Z,0
2017-10-26T04:42:45.166Z,0
2017-10-26T04:43:44.483Z,0
2017-10-26T04:44:44.467Z,0
2017-10-26T04:45:45.112Z,0
2017-10-26T04:46:44.480Z,0
2017-10-26T04:47:44.421Z,0
2017-10-26T04:48:44.735Z,0
2017-10-26T04:49:44.403Z,0
2017-10-26T04:50:45.050Z,0
2017-10-26T04:51:44.375Z,0
2017-10-26T04:52:44.354Z,0
2017-10-26T04:53:44.688Z,0
2017-10-26T04:54:45.026Z,0
2017-10-26T04:55:44.669Z,0
2017-10-26T04:56:44.649Z,0
2017-10-26T04:57:44.286Z,0
2017-10-26T04:58:44.614Z,0
2017-10-26T04:59:44.598Z,0
2017-10-26T05:00:44.262Z,0
2017-10-26T05:01:44.573Z,0
2017-10-26T05:02:44.215Z,0
2017-10-26T05:03:43.867Z,0
2017-10-26T05:04:44.188Z,0
2017-10-26T05:05:43.506Z,0
2017-10-26T05:06:44.503Z,0
2017-10-26T05:07:43.808Z,0
2017-10-26T05:08:43.794Z,0
2017-10-26T05:09:44.458Z,0
2017-10-26T05:10:44.435Z,0
2017-10-26T05:11:44.106Z,0
2017-10-26T05:12:44.085Z,0
2017-10-26T05:13:44.058Z,0
2017-10-26T05:14:44.050Z,0
2017-10-26T05:15:43.710Z,0
2017-10-26T05:16:44.024Z,0
2017-10-26T05:17:44.033Z,0
2017-10-26T05:18:44.663Z,0
2017-10-26T05:19:43.659Z,0
2017-10-26T05:20:43.992Z,0
2017-10-26T05:21:43.298Z,0
2017-10-26T05:22:43.945Z,0
2017-10-26T05:23:44.274Z,0
2017-10-26T05:24:44.254Z,0
2017-10-26T05:25:44.435Z,0
2017-10-26T05:26:44.219Z,0
2017-10-26T05:27:44.206Z,0
2017-10-26T05:28:44.194Z,0
2017-10-26T05:29:43.882Z,0
2017-10-26T05:30:43.866Z,0
2017-10-26T05:31:43.860Z,0
2017-10-26T05:32:44.478Z,0
2017-10-26T05:33:44.119Z,0
2017-10-26T05:34:43.772Z,0
2017-10-26T05:35:43.432Z,0
2017-10-26T05:36:44.084Z,0
2017-10-26T05:37:44.070Z,0
2017-10-26T05:38:43.733Z,0
2017-10-26T05:39:44.044Z,0
2017-10-26T05:40:44.021Z,0
2017-10-26T05:41:44.023Z,0
2017-10-26T05:42:44.001Z,0
2017-10-26T05:43:43.651Z,0
2017-10-26T05:44:43.979Z,0
2017-10-26T05:45:43.619Z,0
2017-10-26T05:46:43.949Z,0
2017-10-26T05:47:43.589Z,0
2017-10-26T05:48:43.921Z,0
2017-10-26T05:49:43.895Z,0
2017-10-26T05:50:43.212Z,0
2017-10-26T05:51:44.202Z,0
2017-10-26T05:52:43.543Z,0
2017-10-26T05:53:43.514Z,0
2017-10-26T05:54:43.856Z,0
2017-10-26T05:55:43.820Z,0
2017-10-26T05:56:43.465Z,0
2017-10-26T05:57:43.116Z,0
2017-10-26T05:58:43.454Z,0
2017-10-26T05:59:43.768Z,0
2017-10-26T06:00:43.424Z,0
2017-10-26T06:01:43.067Z,0
2017-10-26T06:02:43.722Z,0
2017-10-26T06:03:43.369Z,0
2017-10-26T06:04:43.022Z,0
2017-10-26T06:05:42.682Z,0
2017-10-26T06:06:43.659Z,0
2017-10-26T06:07:43.320Z,0
2017-10-26T06:08:42.975Z,0
2017-10-26T06:09:43.623Z,0
2017-10-26T06:10:43.614Z,0
2017-10-26T06:11:43.266Z,0
2017-10-26T06:12:43.605Z,0
2017-10-26T06:13:42.897Z,0
2017-10-26T06:14:43.895Z,0
2017-10-26T06:15:43.538Z,0
2017-10-26T06:16:43.534Z,0
2017-10-26T06:17:43.515Z,0
2017-10-26T06:18:43.846Z,0
2017-10-26T06:19:43.820Z,0
2017-10-26T06:20:43.131Z,0
2017-10-26T06:21:43.793Z,0
2017-10-26T06:22:42.775Z,0
2017-10-26T06:23:43.087Z,0
2017-10-26T06:24:43.409Z,0
2017-10-26T06:25:43.076Z,5
2017-10-26T06:26:42.721Z,5
2017-10-26T06:27:42.715Z,5
2017-10-26T06:28:43.354Z,5
2017-10-26T06:29:43.008Z,5
2017-10-26T06:30:42.992Z,5
2017-10-26T06:31:43.311Z,5
2017-10-26T06:32:43.632Z,5
2017-10-26T06:33:43.286Z,5
2017-10-26T06:34:42.935Z,5
2017-10-26T06:35:42.918Z,5
2017-10-26T06:36:42.919Z,5
2017-10-26T06:37:43.243Z,10
2017-10-26T06:38:43.214Z,10
2017-10-26T06:39:42.867Z,10
2017-10-26T06:40:43.185Z,10
2017-10-26T06:41:43.182Z,10
2017-10-26T06:42:42.827Z,15
2017-10-26T06:43:42.813Z,15
2017-10-26T06:44:42.797Z,20
2017-10-26T06:45:42.463Z,20
2017-10-26T06:46:42.764Z,20
2017-10-26T06:47:42.750Z,20
2017-10-26T06:48:42.401Z,20
2017-10-26T06:49:43.057Z,20
2017-10-26T06:50:43.043Z,15
2017-10-26T06:51:42.030Z,15
2017-10-26T06:52:42.351Z,15
2017-10-26T06:53:42.997Z,15
2017-10-26T06:54:42.315Z,15
2017-10-26T06:55:42.329Z,15
2017-10-26T06:56:42.299Z,15
2017-10-26T06:57:42.951Z,15
2017-10-26T06:58:42.612Z,15
2017-10-26T06:59:42.918Z,15
2017-10-26T07:00:42.247Z,15
2017-10-26T07:01:42.892Z,15
2017-10-26T07:02:42.906Z,10
2017-10-26T07:03:42.536Z,10
2017-10-26T07:04:43.187Z,5
2017-10-26T07:05:42.499Z,5
2017-10-26T07:06:42.154Z,10
2017-10-26T07:07:42.478Z,5
2017-10-26T07:08:42.458Z,5
2017-10-26T07:09:42.460Z,5
2017-10-26T07:10:42.436Z,5
2017-10-26T07:11:42.434Z,5
2017-10-26T07:12:42.079Z,10
2017-10-26T07:13:42.393Z,10
2017-10-26T07:14:43.047Z,10
2017-10-26T07:15:42.694Z,15
2017-10-26T07:16:42.684Z,20
2017-10-26T07:17:42.339Z,25
2017-10-26T07:18:42.326Z,25
2017-10-26T07:19:41.979Z,20
2017-10-26T07:20:42.962Z,20
2017-10-26T07:21:41.948Z,20
2017-10-26T07:22:41.938Z,25
2017-10-26T07:23:41.963Z,30
2017-10-26T07:24:42.258Z,30
2017-10-26T07:25:42.566Z,35
2017-10-26T07:26:42.425Z,30
2017-10-26T07:27:41.865Z,30
2017-10-26T07:28:42.187Z,30
2017-10-26T07:29:42.506Z,35
2017-10-26T07:30:41.819Z,35
2017-10-26T07:31:42.153Z,30
2017-10-26T07:32:42.815Z,30
2017-10-26T07:33:42.119Z,35
2017-10-26T07:34:42.112Z,35
2017-10-26T07:35:42.428Z,35
2017-10-26T07:36:42.754Z,40
2017-10-26T07:37:42.071Z,45
2017-10-26T07:38:42.046Z,45
2017-10-26T07:39:42.707Z,40
2017-10-26T07:40:42.030Z,35
2017-10-26T07:41:42.021Z,35
2017-10-26T07:42:41.998Z,40
2017-10-26T07:43:42.313Z,30
2017-10-26T07:44:41.629Z,45
2017-10-26T07:45:41.284Z,50
2017-10-26T07:46:42.271Z,60
2017-10-26T07:47:42.249Z,75
2017-10-26T07:48:42.577Z,85
2017-10-26T07:49:41.909Z,85
2017-10-26T07:50:41.556Z,80
2017-10-26T07:51:42.539Z,80
2017-10-26T07:52:41.856Z,80
2017-10-26T07:53:41.837Z,90
2017-10-26T07:54:42.158Z,100
2017-10-26T07:55:41.819Z,120
2017-10-26T07:56:41.477Z,105
2017-10-26T07:57:42.462Z,85
2017-10-26T07:58:42.117Z,70
2017-10-26T07:59:42.104Z,75
2017-10-26T08:00:41.740Z,90
2017-10-26T08:01:42.087Z,75
2017-10-26T08:02:41.718Z,70
2017-10-26T08:03:41.718Z,70
2017-10-26T08:04:41.698Z,75
2017-10-26T08:05:41.685Z,70
2017-10-26T08:06:41.672Z,60
2017-10-26T08:07:41.337Z,65
2017-10-26T08:08:41.307Z,65
2017-10-26T08:09:41.960Z,60
2017-10-26T08:10:41.617Z,60
2017-10-26T08:11:41.283Z,55
2017-10-26T08:12:41.600Z,65
2017-10-26T08:13:41.919Z,60
2017-10-26T08:14:41.913Z,75
2017-10-26T08:15:41.550Z,70
2017-10-26T08:16:41.215Z,80
2017-10-26T08:17:42.224Z,80
2017-10-26T08:18:41.545Z,85
2017-10-26T08:19:41.171Z,110
2017-10-26T08:20:41.159Z,115
2017-10-26T08:21:41.831Z,120
2017-10-26T08:22:41.469Z,130
2017-10-26T08:23:41.448Z,160
2017-10-26T08:24:41.772Z,130
2017-10-26T08:25:41.781Z,150
2017-10-26T08:26:41.077Z,100
2017-10-26T08:27:41.392Z,85
2017-10-26T08:28:41.768Z,85
2017-10-26T08:29:41.397Z,75
2017-10-26T08:30:41.025Z,65
2017-10-26T08:31:41.052Z,50
2017-10-26T08:32:41.339Z,50
2017-10-26T08:33:41.336Z,50
2017-10-26T08:34:41.670Z,50
2017-10-26T08:35:40.965Z,45
2017-10-26T08:36:41.291Z,50
2017-10-26T08:37:40.945Z,70
2017-10-26T08:38:41.936Z,65
2017-10-26T08:39:41.255Z,60
2017-10-26T08:40:41.593Z,45
2017-10-26T08:41:41.219Z,55
2017-10-26T08:42:41.884Z,50
2017-10-26T08:43:41.209Z,60
2017-10-26T08:44:41.847Z,70
2017-10-26T08:45:41.507Z,70
2017-10-26T08:46:41.178Z,80
2017-10-26T08:47:41.805Z,140
2017-10-26T08:48:41.474Z,160
2017-10-26T08:49:41.142Z,160
2017-10-26T08:50:41.460Z,160
2017-10-26T08:51:41.444Z,150
2017-10-26T08:52:40.750Z,135
2017-10-26T08:53:40.738Z,110
2017-10-26T08:54:41.113Z,75
2017-10-26T08:55:41.716Z,75
2017-10-26T08:56:41.035Z,85
2017-10-26T08:57:41.363Z,80
2017-10-26T08:58:41.356Z,85
2017-10-26T08:59:41.002Z,120
2017-10-26T09:00:40.988Z,120
2017-10-26T09:01:40.974Z,100
2017-10-26T09:02:40.956Z,95
2017-10-26T09:03:41.282Z,75
2017-10-26T09:04:40.933Z,65
2017-10-26T09:05:41.281Z,70
2017-10-26T09:06:40.911Z,90
2017-10-26T09:07:41.250Z,110
2017-10-26T09:08:40.549Z,125
2017-10-26T09:09:40.536Z,100
2017-10-26T09:10:40.869Z,105
2017-10-26T09:11:40.854Z,95
2017-10-26T09:12:40.842Z,70
2017-10-26T09:13:41.157Z,60
2017-10-26T09:14:41.136Z,60
2017-10-26T09:15:40.805Z,75
2017-10-26T09:16:40.791Z,105
2017-10-26T09:17:41.110Z,115
2017-10-26T09:18:40.427Z,105
2017-10-26T09:19:40.743Z,80
2017-10-26T09:20:41.073Z,85
2017-10-26T09:21:40.719Z,75
2017-10-26T09:22:41.391Z,70
2017-10-26T09:23:40.690Z,105
2017-10-26T09:24:40.679Z,105
2017-10-26T09:25:40.678Z,85
2017-10-26T09:26:40.864Z,80
2017-10-26T09:27:40.983Z,90
2017-10-26T09:28:40.644Z,70
2017-10-26T09:29:40.295Z,50
2017-10-26T09:30:41.286Z,55
2017-10-26T09:31:40.266Z,65
2017-10-26T09:32:40.912Z,65
2017-10-26T09:33:40.910Z,70
2017-10-26T09:34:40.899Z,90
2017-10-26T09:35:40.216Z,105
2017-10-26T09:36:40.573Z,95
2017-10-26T09:37:40.855Z,110
2017-10-26T09:38:40.864Z,105
2017-10-26T09:39:40.840Z,95
2017-10-26T09:40:40.486Z,70
2017-10-26T09:41:40.482Z,70
2017-10-26T09:42:40.460Z,105
2017-10-26T09:43:40.124Z,85
2017-10-26T09:44:40.436Z,105
2017-10-26T09:45:40.431Z,105
2017-10-26T09:46:40.075Z,70
2017-10-26T09:47:40.400Z,90
2017-10-26T09:48:40.068Z,180
2017-10-26T09:49:40.706Z,240
2017-10-26T09:50:40.697Z,245
2017-10-26T09:51:40.685Z,240
2017-10-26T09:52:40.339Z,250
2017-10-26T09:53:40.673Z,255
2017-10-26T09:54:40.312Z,270
2017-10-26T09:55:40.638Z,265
2017-10-26T09:56:40.640Z,275
2017-10-26T09:57:40.307Z,270
2017-10-26T09:58:40.622Z,275
2017-10-26T09:59:40.936Z,280
2017-10-26T10:00:40.252Z,265
2017-10-26T10:01:39.898Z,265
2017-10-26T10:02:39.889Z,275
2017-10-26T10:03:40.542Z,270
2017-10-26T10:04:40.536Z,260
2017-10-26T10:05:39.857Z,240
2017-10-26T10:06:40.508Z,230
2017-10-26T10:07:39.835Z,230
2017-10-26T10:08:40.151Z,220
2017-10-26T10:09:40.141Z,200
2017-10-26T10:10:40.513Z,195
2017-10-26T10:11:40.513Z,170
2017-10-26T10:12:40.116Z,145
2017-10-26T10:13:40.099Z,215
2017-10-26T10:14:40.090Z,190
2017-10-26T10:15:39.740Z,155
2017-10-26T10:16:40.071Z,185
2017-10-26T10:17:40.058Z,190
2017-10-26T10:18:40.373Z,195
2017-10-26T10:19:40.360Z,175
2017-10-26T10:20:39.679Z,165
2017-10-26T10:21:39.676Z,185
2017-10-26T10:22:40.685Z,145
2017-10-26T10:23:39.986Z,140
2017-10-26T10:24:40.706Z,155
2017-10-26T10:25:40.296Z,165
2017-10-26T10:26:40.291Z,170
2017-10-26T10:27:39.942Z,170
2017-10-26T10:28:40.287Z,205
2017-10-26T10:29:40.641Z,175
2017-10-26T10:30:39.579Z,170
2017-10-26T10:31:39.890Z,135
2017-10-26T10:32:39.884Z,135
2017-10-26T10:33:39.871Z,145
2017-10-26T10:34:39.911Z,155
2017-10-26T10:35:40.180Z,140
2017-10-26T10:36:39.839Z,145
2017-10-26T10:37:40.492Z,125
2017-10-26T10:38:39.815Z,170
2017-10-26T10:39:40.474Z,175
2017-10-26T10:40:39.457Z,145
2017-10-26T10:41:39.783Z,125
2017-10-26T10:42:40.112Z,145
2017-10-26T10:43:39.755Z,240
2017-10-26T10:44:39.747Z,270
2017-10-26T10:45:39.739Z,295
2017-10-26T10:46:39.724Z,375
2017-10-26T10:47:39.714Z,415
2017-10-26T10:48:39.371Z,365
2017-10-26T10:49:40.025Z,310
2017-10-26T10:50:39.682Z,410
2017-10-26T10:51:40.007Z,285
2017-10-26T10:52:39.651Z,255
2017-10-26T10:53:39.320Z,255
2017-10-26T10:54:39.652Z,475
2017-10-26T10:55:39.299Z,295
2017-10-26T10:56:39.282Z,370
2017-10-26T10:57:40.282Z,275
2017-10-26T10:58:39.286Z,360
2017-10-26T10:59:39.756Z,260
2017-10-26T11:00:39.277Z,400
2017-10-26T11:01:39.571Z,450
2017-10-26T11:02:39.559Z,435
2017-10-26T11:03:39.883Z,455
2017-10-26T11:04:39.899Z,290
2017-10-26T11:05:40.202Z,425
2017-10-26T11:06:38.858Z,500
2017-10-26T11:07:39.542Z,460
2017-10-26T11:08:39.176Z,475
2017-10-26T11:09:39.492Z,460
2017-10-26T11:10:39.151Z,200
2017-10-26T11:11:39.148Z,205
2017-10-26T11:12:40.152Z,195
2017-10-26T11:13:39.789Z,580
2017-10-26T11:14:40.127Z,335
2017-10-26T11:15:39.772Z,535
2017-10-26T11:16:39.435Z,390
2017-10-26T11:17:39.427Z,490
2017-10-26T11:18:39.417Z,460
2017-10-26T11:19:39.426Z,490
2017-10-26T11:20:38.731Z,530
2017-10-26T11:21:39.715Z,430
2017-10-26T11:22:40.047Z,460
2017-10-26T11:23:39.039Z,405
2017-10-26T11:24:39.361Z,260
2017-10-26T11:25:40.037Z,245
2017-10-26T11:26:40.218Z,265
2017-10-26T11:27:39.004Z,225
2017-10-26T11:28:39.661Z,270
2017-10-26T11:29:39.663Z,365
2017-10-26T11:30:39.311Z,345
2017-10-26T11:31:39.311Z,325
2017-10-26T11:32:38.972Z,250
2017-10-26T11:33:39.618Z,175
2017-10-26T11:34:39.301Z,225
2017-10-26T11:35:39.609Z,260
2017-10-26T11:36:38.942Z,265
2017-10-26T11:37:39.583Z,330
2017-10-26T11:38:39.252Z,405
2017-10-26T11:39:38.901Z,335
2017-10-26T11:40:39.229Z,525
2017-10-26T11:41:39.233Z,340
2017-10-26T11:42:39.550Z,250
2017-10-26T11:43:39.220Z,435
2017-10-26T11:44:39.541Z,345
2017-10-26T11:45:39.525Z,445
2017-10-26T11:46:39.178Z,440
2017-10-26T11:47:38.839Z,580
2017-10-26T11:48:39.500Z,605
2017-10-26T11:49:38.835Z,575
2017-10-26T11:50:39.157Z,445
2017-10-26T11:51:39.467Z,195
2017-10-26T11:52:39.466Z,455
2017-10-26T11:53:39.128Z,270
2017-10-26T11:54:39.127Z,385
2017-10-26T11:55:39.446Z,130
2017-10-26T11:56:39.446Z,140
2017-10-26T11:57:39.098Z,165
2017-10-26T11:58:38.756Z,130
2017-10-26T11:59:39.759Z,115
2017-10-26T12:00:39.404Z,135
2017-10-26T12:01:39.068Z,195
2017-10-26T12:02:39.058Z,465
2017-10-26T12:03:39.387Z,290
2017-10-26T12:04:39.386Z,410
2017-10-26T12:05:38.699Z,290
2017-10-26T12:06:39.024Z,255
2017-10-26T12:07:38.684Z,255
2017-10-26T12:08:39.014Z,295
2017-10-26T12:09:38.666Z,305
2017-10-26T12:10:38.992Z,260
2017-10-26T12:11:38.646Z,240
2017-10-26T12:12:39.319Z,250
2017-10-26T12:13:39.317Z,315
2017-10-26T12:14:38.964Z,340
2017-10-26T12:15:39.624Z,375
2017-10-26T12:16:39.279Z,330
2017-10-26T12:17:38.938Z,325
2017-10-26T12:18:38.919Z,300
2017-10-26T12:19:38.920Z,305
2017-10-26T12:20:39.237Z,305
2017-10-26T12:21:39.240Z,340
2017-10-26T12:22:38.218Z,355
2017-10-26T12:23:38.876Z,335
2017-10-26T12:24:38.538Z,295
2017-10-26T12:25:39.220Z,360
2017-10-26T12:26:38.875Z,390
2017-10-26T12:27:38.176Z,410
2017-10-26T12:28:39.510Z,310
2017-10-26T12:29:39.174Z,220
2017-10-26T12:30:38.831Z,285
2017-10-26T12:31:39.163Z,330
2017-10-26T12:32:38.815Z,330
2017-10-26T12:33:38.803Z,380
2017-10-26T12:34:39.131Z,425
2017-10-26T12:35:39.119Z,445
2017-10-26T12:36:38.773Z,320
2017-10-26T12:37:38.438Z,325
2017-10-26T12:38:38.768Z,705
2017-10-26T12:39:39.089Z,785
2017-10-26T12:40:38.745Z,540
2017-10-26T12:41:39.073Z,420
2017-10-26T12:42:39.066Z,370
2017-10-26T12:43:39.049Z,305
2017-10-26T12:44:38.374Z,455
2017-10-26T12:45:39.042Z,380
2017-10-26T12:46:38.703Z,355
2017-10-26T12:47:38.687Z,410
2017-10-26T12:48:38.352Z,420
2017-10-26T12:49:39.011Z,450
2017-10-26T12:50:38.332Z,555
2017-10-26T12:51:37.994Z,470
2017-10-26T12:52:39.325Z,460
2017-10-26T12:53:39.343Z,475
2017-10-26T12:54:38.301Z,385
2017-10-26T12:55:38.683Z,365
2017-10-26T12:56:39.013Z,395
2017-10-26T12:57:38.632Z,440
2017-10-26T12:58:38.974Z,295
2017-10-26T12:59:38.611Z,485
2017-10-26T13:00:38.613Z,510
2017-10-26T13:01:38.262Z,610
2017-10-26T13:02:38.592Z,420
2017-10-26T13:03:38.929Z,475
2017-10-26T13:04:38.927Z,240
2017-10-26T13:05:38.249Z,205
2017-10-26T13:06:38.901Z,305
2017-10-26T13:07:38.567Z,215
2017-10-26T13:08:38.572Z,290
2017-10-26T13:09:38.550Z,500
2017-10-26T13:10:38.215Z,305
2017-10-26T13:11:38.559Z,605
2017-10-26T13:12:38.878Z,495
2017-10-26T13:13:38.534Z,525
2017-10-26T13:14:38.189Z,515
2017-10-26T13:15:37.871Z,505
2017-10-26T13:16:38.180Z,605
2017-10-26T13:17:38.511Z,325
2017-10-26T13:18:38.502Z,235
2017-10-26T13:19:38.868Z,265
2017-10-26T13:20:38.525Z,215
2017-10-26T13:21:38.498Z,315
2017-10-26T13:22:38.481Z,375
2017-10-26T13:23:38.816Z,340
2017-10-26T13:24:38.143Z,270
2017-10-26T13:25:37.803Z,270
2017-10-26T13:26:39.323Z,220
2017-10-26T13:27:38.462Z,335
2017-10-26T13:28:38.460Z,300
2017-10-26T13:29:38.770Z,225
2017-10-26T13:30:39.108Z,420
2017-10-26T13:31:38.443Z,380
2017-10-26T13:32:38.752Z,390
2017-10-26T13:33:38.422Z,240
2017-10-26T13:34:38.409Z,210
2017-10-26T13:35:38.739Z,210
2017-10-26T13:36:38.735Z,235
2017-10-26T13:37:38.068Z,255
2017-10-26T13:38:38.053Z,215
2017-10-26T13:39:38.715Z,190
2017-10-26T13:40:38.058Z,215
2017-10-26T13:41:38.373Z,240
2017-10-26T13:42:38.034Z,360
2017-10-26T13:43:37.696Z,460
2017-10-26T13:44:38.352Z,490
2017-10-26T13:45:38.350Z,415
2017-10-26T13:46:38.341Z,365
2017-10-26T13:47:38.330Z,380
2017-10-26T13:48:38.998Z,370
2017-10-26T13:49:37.995Z,310
2017-10-26T13:50:38.325Z,280
2017-10-26T13:51:38.637Z,365
2017-10-26T13:52:38.977Z,330
2017-10-26T13:53:38.633Z,290
2017-10-26T13:54:38.628Z,340
2017-10-26T13:55:38.610Z,360
2017-10-26T13:56:38.274Z,340
2017-10-26T13:57:38.606Z,350
2017-10-26T13:58:38.266Z,360
2017-10-26T13:59:37.929Z,345
2017-10-26T14:00:38.281Z,335
2017-10-26T14:01:38.247Z,280
2017-10-26T14:02:38.242Z,170
2017-10-26T14:03:38.247Z,180
2017-10-26T14:04:38.568Z,165
2017-10-26T14:05:38.557Z,145
2017-10-26T14:06:38.574Z,145
2017-10-26T14:07:38.207Z,145
2017-10-26T14:08:38.539Z,145
2017-10-26T14:09:38.543Z,155
2017-10-26T14:10:38.851Z,155
2017-10-26T14:11:38.507Z,155
2017-10-26T14:12:38.171Z,160
2017-10-26T14:13:38.512Z,175
2017-10-26T14:14:38.836Z,160
2017-10-26T14:15:38.488Z,140
2017-10-26T14:16:38.478Z,130
2017-10-26T14:17:38.818Z,135
2017-10-26T14:18:38.138Z,120
2017-10-26T14:19:38.120Z,115